HKJKFNLU

Guest
Details From HKJK - Nairobi Jomo Kanyatta Intl
To FNLU - LUANDA 4 DE FEVEREIRO
Flight Number -
Tags decoded
Created
Modified
Stats Distance 1,487 nm / 2,755 km
Max Altitude 0 ft / 0 m
Waypoints 3
Social Downloads 0
Likes 0
Share VATSIM

Download

Looking for another format? Having issues loading an existing format? Contact us
Advertisement - Login to hide

Notes

Requested: HKJK PARI2B PARIN UG450 UNDOS UNDO1B FNLU Unmatched points: PARI2B UG450 UNDOS UNDO1B

Route

HKJK PARIN FNLU

ID Type Via Altitude Latitude Longitude Leg Dist Tot Dist Heading (true) Name
O HKJK APT - 0 ft / 0 m -1.31707˚ 36.93076˚ - 0 nm - Nairobi Jomo Kanyatta Intl
PARIN FIX - 0 ft / 0 m -1.75453˚ 35.35657˚ 98 nm 98 nm 254° / 254° -
O FNLU APT - 0 ft / 0 m -8.85838˚ 13.23118˚ 1389 nm 1487 nm 251° / 253° LUANDA 4 DE FEVEREIRO

Altitude Profile

Advertisement - Login to hide

Weather


0- 5 10 15 20 25 30 35+ Temperature / ° C

Clouds and Precipitation
Forecast for 2017-12-14 18:00 UTC. Updated 2 hours ago

Ground ~20,000 ft ~40,000 ft Winds

HKJK

Details ICAO HKJK (NBO)
Name Nairobi Jomo Kanyatta Intl
Region Kenya
Timezone Africa/Nairobi (UTC+3.0)
Stats Elevation 5,330 ft / 1,625 m (AMSL)
Location -1.317073° 36.930757°
Runways 1
Magnetic Variation 0.576° E

METAR

HKJK 141630Z 05010KT 9999 FEW032 22/12 Q1019

Decode

TAF

TAF HKJK 141100Z 1412/1518 06010KT 9999 FEW027 BECMG 1420/1423 03005KT CAVOK TEMPO 1500/1506 FEW007 SCT016 BECMG 1608/1611 06010KT SCT026

Decode

Departure Runways

ID Width Length Bearing (true) Bearing (mag) Surface Threshold Offset Overrun Length
06 148 ft / 45 m 13,215 ft / 4,028 m 53.90° 53.32° Asphalt 0 ft / 0 m 194 ft / 59 m
24 148 ft / 45 m 13,215 ft / 4,028 m 233.90° 233.32° Asphalt 0 ft / 0 m 197 ft / 60 m

FNLU

Details ICAO FNLU (LAD)
Name LUANDA 4 DE FEVEREIRO
Region Angola
Timezone Africa/Luanda (UTC+1.0)
Stats Elevation 243 ft / 74 m (AMSL)
Location -8.858377° 13.231178°
Runways 2
Magnetic Variation 3.483° W

METAR

FNLU 141700Z 23008KT 9999 FEW020 BKN080 27/22 Q1009

Decode

TAF

Not found

Destination Runways

ID Width Length Bearing (true) Bearing (mag) Surface Threshold Offset Overrun Length
05 148 ft / 45 m 12,153 ft / 3,704 m 46.63° 50.11° Asphalt 0 ft / 0 m 0 ft / 0 m
07 197 ft / 60 m 8,176 ft / 2,492 m 67.40° 70.88° Asphalt 0 ft / 0 m 176 ft / 54 m
23 148 ft / 45 m 12,153 ft / 3,704 m 226.62° 230.10° Asphalt 500 ft / 152 m 0 ft / 0 m
25 197 ft / 60 m 8,176 ft / 2,492 m 247.40° 250.88° Asphalt 0 ft / 0 m 0 ft / 0 m

Approach Navaids

Runway Type Ident Frequency Range Bearing (true) Bearing (mag) Slope Elevation
23 Localiser ILD 110.30 MHz 18 nm / 33 km 226.62° 230.11° - 243 ft / 74 m (AMSL)
23 Glidescope ILD 110.30 MHz 10 nm / 19 km 226.62° 230.11° 3.00° 243 ft / 74 m (AMSL)
23 DME ILD 110.30 MHz 18 nm / 33 km - - - 243 ft / 74 m (AMSL)

Popular Alternatives